KASX/ASX METAR and TAF weather

Enter ICAO airport designator
Station Type Date Time Source
KASX METAR 2019/08/18 18:53 UTC NOAA

KASX 181853Z AUTO 30015G22KT 10SM SCT034 BKN070 21/13 A2973 RMK AO2 SLP067 T02060128


Station Type Date Time Source
KASX Decoded METAR 2019/08/18 18:53 UTC NOAA

Station name not available
Aug 18, 2019 - 02:53 PM EDT / 2019.08.18 1853 UTC
Wind: from the WNW (300 degrees) at 17 MPH (15 KT) gusting to 25 MPH (22 KT):0
Visibility: 10 mile(s):0
Sky conditions: mostly cloudy
Temperature: 69.1 F (20.6 C)
Dew Point: 55.0 F (12.8 C)
Relative Humidity: 60%
Pressure (altimeter): 29.73 in. Hg (1006 hPa)
ob: KASX 181853Z AUTO 30015G22KT 10SM SCT034 BKN070 21/13 A2973 RMK AO2 SLP067 T02060128
cycle: 19

Station Type Date Time Source
KASX TAF UTC NOAA

Error!

Example: see airport list